Time;durP1;ratioP1;P1;durP2;ratioP2;P2;SDS_P1;SDS_P2;PMS_P1;PMS_P2;Temp;Humidity;BMP_temperature;BMP_pressure;BME280_temperature;BME280_humidity;BME280_pressure;Samples;Min_cycle;Max_cycle;Signal;HPM_P1;HPM_P2
2022/06/26 00:01:39;;;;;;;7.88;4.45;;;15.40;86.90;;;;;;5023535;28;20107;-76
2022/06/26 00:04:05;;;;;;;9.98;4.90;;;15.40;86.90;;;;;;5019981;28;20037;-77
2022/06/26 00:06:30;;;;;;;6.82;4.28;;;15.50;86.90;;;;;;5018309;28;20368;-76
2022/06/26 00:08:56;;;;;;;10.55;5.07;;;15.40;87.00;;;;;;5029564;28;20041;-77
2022/06/26 00:11:22;;;;;;;9.02;4.43;;;15.40;87.00;;;;;;5019968;28;20183;-76
2022/06/26 00:13:48;;;;;;;12.13;5.07;;;15.40;87.20;;;;;;5021736;28;20500;-76
2022/06/26 00:16:13;;;;;;;8.45;4.85;;;15.40;87.20;;;;;;5034032;28;20037;-77
2022/06/26 00:18:41;;;;;;;11.18;4.65;;;15.40;87.20;;;;;;5026611;28;20056;-76
2022/06/26 00:21:07;;;;;;;9.18;5.15;;;15.40;87.20;;;;;;5018466;28;20057;-76
2022/06/26 00:23:34;;;;;;;9.13;4.88;;;15.40;87.30;;;;;;5015943;28;20048;-77
2022/06/26 00:26:01;;;;;;;11.13;5.07;;;15.40;87.20;;;;;;5021623;28;20049;-77
2022/06/26 00:28:26;;;;;;;8.40;4.82;;;15.30;87.30;;;;;;5021530;28;20037;-77
2022/06/26 00:30:52;;;;;;;9.38;5.18;;;15.30;87.40;;;;;;5026391;28;20037;-77
2022/06/26 00:33:18;;;;;;;11.23;5.20;;;15.30;87.40;;;;;;5021214;28;20113;-77
2022/06/26 00:35:43;;;;;;;9.80;4.78;;;15.30;87.50;;;;;;5019027;28;20029;-76
2022/06/26 00:38:09;;;;;;;8.55;5.15;;;15.30;87.40;;;;;;5017291;28;20045;-76
2022/06/26 00:40:35;;;;;;;11.93;5.15;;;15.30;87.50;;;;;;5015013;28;20096;-77
2022/06/26 00:43:00;;;;;;;9.50;5.40;;;15.20;87.50;;;;;;5019255;28;20071;-76
2022/06/26 00:45:26;;;;;;;10.50;4.97;;;15.20;87.60;;;;;;5024512;28;20080;-77
2022/06/26 00:47:51;;;;;;;8.88;5.63;;;15.20;87.80;;;;;;5013468;28;20593;-76
2022/06/26 00:50:17;;;;;;;9.15;5.00;;;15.20;87.80;;;;;;5016719;28;20083;-75
2022/06/26 00:52:44;;;;;;;10.82;5.88;;;15.20;87.80;;;;;;5020483;28;20033;-75
2022/06/26 00:55:10;;;;;;;10.43;5.18;;;15.10;87.80;;;;;;5016345;28;20048;-76
2022/06/26 00:57:36;;;;;;;11.00;5.82;;;15.10;87.90;;;;;;5016857;28;20073;-77
2022/06/26 01:00:05;;;;;;;10.52;5.53;;;15.20;88.00;;;;;;5021722;28;20125;-78
2022/06/26 01:02:31;;;;;;;9.45;5.45;;;15.10;87.90;;;;;;5019694;28;20037;-77
2022/06/26 01:04:56;;;;;;;9.65;5.22;;;15.20;88.00;;;;;;5021667;28;20033;-77
2022/06/26 01:07:22;;;;;;;9.80;5.50;;;15.20;88.00;;;;;;5010207;28;20552;-77
2022/06/26 01:09:48;;;;;;;9.25;5.10;;;15.10;88.10;;;;;;5018748;28;20029;-77
2022/06/26 01:12:14;;;;;;;9.07;5.30;;;15.10;88.20;;;;;;5019849;28;20036;-77
2022/06/26 01:14:40;;;;;;;9.55;5.43;;;15.20;88.30;;;;;;5011574;28;20099;-77
2022/06/26 01:17:06;;;;;;;10.60;5.68;;;15.10;88.20;;;;;;5017340;28;20033;-76
2022/06/26 01:19:31;;;;;;;11.70;5.80;;;15.20;88.30;;;;;;5005891;28;20403;-77
2022/06/26 01:21:57;;;;;;;10.48;5.75;;;15.20;88.20;;;;;;5013939;28;20465;-76
2022/06/26 01:24:23;;;;;;;9.98;5.53;;;15.10;88.20;;;;;;5011868;28;20488;-76
2022/06/26 01:26:48;;;;;;;11.00;5.40;;;15.10;88.30;;;;;;5013956;28;20481;-76
2022/06/26 01:29:14;;;;;;;9.40;5.32;;;15.10;88.40;;;;;;5012993;28;20061;-75
2022/06/26 01:31:40;;;;;;;12.85;6.28;;;15.10;88.30;;;;;;5017972;28;20025;-76
2022/06/26 01:34:08;;;;;;;9.77;5.60;;;15.10;88.20;;;;;;5021868;28;20041;-75
2022/06/26 01:36:34;;;;;;;9.23;5.50;;;15.10;88.40;;;;;;5015270;28;20033;-75
2022/06/26 01:39:00;;;;;;;12.05;5.95;;;15.10;88.50;;;;;;5020745;28;20069;-75
2022/06/26 01:41:26;;;;;;;12.00;5.97;;;15.10;88.30;;;;;;5012581;28;20192;-75
2022/06/26 01:43:51;;;;;;;10.80;5.75;;;15.10;88.40;;;;;;5013563;28;20095;-75
2022/06/26 01:46:18;;;;;;;9.82;6.15;;;15.10;88.40;;;;;;5018742;28;20037;-75
2022/06/26 01:48:44;;;;;;;9.32;5.68;;;15.10;88.40;;;;;;5013421;28;20128;-76
2022/06/26 01:51:09;;;;;;;9.23;5.63;;;15.10;88.40;;;;;;5013128;28;20079;-76
2022/06/26 01:53:36;;;;;;;9.65;5.80;;;15.10;88.40;;;;;;5013256;28;20068;-76
2022/06/26 01:56:03;;;;;;;10.48;5.90;;;15.10;88.60;;;;;;5011577;28;20083;-77
2022/06/26 01:58:29;;;;;;;11.32;5.95;;;15.10;88.50;;;;;;5020346;28;20139;-76
2022/06/26 02:00:55;;;;;;;9.63;6.18;;;15.10;88.70;;;;;;5011370;28;20403;-75
2022/06/26 02:03:22;;;;;;;11.88;5.82;;;15.10;88.60;;;;;;5011650;28;20412;-76
2022/06/26 02:05:49;;;;;;;10.45;5.72;;;15.00;88.70;;;;;;5015179;28;20117;-76
2022/06/26 02:08:16;;;;;;;12.95;6.78;;;15.00;88.80;;;;;;5016265;28;20053;-75
2022/06/26 02:13:42;;;;;;;;;;;15.00;88.70;;;;;;5017924;28;20036;-76
2022/06/26 02:16:19;;;;;;;11.32;6.20;;;15.00;88.50;;;;;;5018387;28;19921;-76
2022/06/26 02:18:50;;;;;;;9.63;5.65;;;15.00;88.50;;;;;;5016928;28;20072;-76
2022/06/26 02:21:18;;;;;;;10.05;5.70;;;15.10;88.50;;;;;;5013219;28;20035;-77
2022/06/26 02:23:45;;;;;;;9.95;5.70;;;15.00;88.50;;;;;;5024843;28;20018;-76
2022/06/26 02:26:11;;;;;;;10.57;5.25;;;15.00;88.50;;;;;;5035566;28;20018;-77
2022/06/26 02:28:38;;;;;;;8.65;5.50;;;15.10;88.50;;;;;;5031023;28;20051;-75
2022/06/26 02:31:04;;;;;;;9.90;6.20;;;15.00;88.50;;;;;;5010454;28;20041;-76
2022/06/26 02:33:32;;;;;;;9.40;5.40;;;14.90;88.40;;;;;;5014296;28;20041;-77
2022/06/26 02:35:58;;;;;;;11.40;5.93;;;14.90;88.50;;;;;;5009167;28;20609;-76
2022/06/26 02:38:24;;;;;;;9.35;6.00;;;14.90;88.50;;;;;;5019178;28;20469;-77
2022/06/26 02:40:50;;;;;;;10.73;5.45;;;14.90;88.40;;;;;;5018499;28;20259;-75
2022/06/26 02:43:18;;;;;;;10.80;6.72;;;14.90;88.30;;;;;;5014957;28;20124;-75
2022/06/26 02:45:44;;;;;;;12.82;5.90;;;14.90;88.40;;;;;;5012890;28;20493;-76
2022/06/26 02:48:10;;;;;;;9.45;5.65;;;14.90;88.40;;;;;;5012079;28;20042;-76
2022/06/26 02:50:35;;;;;;;9.88;6.13;;;14.90;88.40;;;;;;5011703;28;20104;-75
2022/06/26 02:53:01;;;;;;;11.15;5.88;;;14.80;88.50;;;;;;5006803;28;20034;-76
2022/06/26 02:55:27;;;;;;;9.82;6.50;;;14.90;88.40;;;;;;5016009;28;20460;-76
2022/06/26 02:57:52;;;;;;;11.48;6.25;;;14.80;88.40;;;;;;5016608;28;20037;-76
2022/06/26 03:00:18;;;;;;;12.02;5.90;;;14.70;88.50;;;;;;5013989;28;20381;-76
2022/06/26 03:02:44;;;;;;;10.40;6.07;;;14.70;88.60;;;;;;5014454;28;20449;-76
2022/06/26 03:05:10;;;;;;;9.15;5.68;;;14.70;88.50;;;;;;5009274;28;20502;-76
2022/06/26 03:07:36;;;;;;;9.88;5.90;;;14.70;88.60;;;;;;5017232;28;20041;-76
2022/06/26 03:10:02;;;;;;;10.52;6.70;;;14.70;88.60;;;;;;5016323;28;20408;-75
2022/06/26 03:12:28;;;;;;;10.48;5.78;;;14.60;88.70;;;;;;5012310;28;20030;-75
2022/06/26 03:14:53;;;;;;;11.65;6.13;;;14.60;88.80;;;;;;5021221;28;20107;-75
2022/06/26 03:17:19;;;;;;;10.85;6.60;;;14.60;88.90;;;;;;5014868;28;20117;-74
2022/06/26 03:19:45;;;;;;;11.60;6.78;;;14.60;88.80;;;;;;5024481;28;20071;-76
2022/06/26 03:22:11;;;;;;;14.80;6.55;;;14.60;88.90;;;;;;5019101;28;20026;-76
2022/06/26 03:24:36;;;;;;;11.95;5.93;;;14.60;89.00;;;;;;5015197;28;20034;-75
2022/06/26 03:27:02;;;;;;;12.07;6.72;;;14.50;89.00;;;;;;5010451;28;20069;-76
2022/06/26 03:29:28;;;;;;;11.63;6.55;;;14.50;89.10;;;;;;5014766;28;20041;-76
2022/06/26 03:31:55;;;;;;;10.50;6.50;;;14.50;89.00;;;;;;5020143;28;20506;-75
2022/06/26 03:34:21;;;;;;;12.00;6.15;;;14.50;89.10;;;;;;5007772;28;20109;-75
2022/06/26 03:36:46;;;;;;;11.05;5.90;;;14.40;89.10;;;;;;5018619;28;20160;-75
2022/06/26 03:39:12;;;;;;;13.52;6.45;;;14.40;89.30;;;;;;5020896;28;20048;-76
2022/06/26 03:41:38;;;;;;;9.10;6.13;;;14.30;89.30;;;;;;5019675;28;20401;-76
2022/06/26 03:44:04;;;;;;;10.32;5.97;;;14.30;89.40;;;;;;5017834;28;20030;-76
2022/06/26 03:46:30;;;;;;;10.90;6.18;;;14.40;89.40;;;;;;5011825;28;20499;-76
2022/06/26 03:48:55;;;;;;;9.93;6.07;;;14.40;89.30;;;;;;5012560;28;20457;-76
2022/06/26 03:51:21;;;;;;;13.55;7.90;;;14.40;89.30;;;;;;5013794;28;20037;-75
2022/06/26 03:53:47;;;;;;;12.02;6.45;;;14.40;89.20;;;;;;5015206;28;20041;-75
2022/06/26 03:56:12;;;;;;;12.88;6.30;;;14.40;89.10;;;;;;5014619;28;20141;-76
2022/06/26 03:58:38;;;;;;;10.80;6.55;;;14.50;88.90;;;;;;5018552;28;20060;-76
2022/06/26 04:01:03;;;;;;;9.60;6.40;;;14.50;88.70;;;;;;5019403;28;20033;-76
2022/06/26 04:03:29;;;;;;;10.85;6.40;;;14.50;88.70;;;;;;5018062;28;20476;-76
2022/06/26 04:05:55;;;;;;;10.88;6.32;;;14.50;88.70;;;;;;5020638;28;20029;-76
2022/06/26 04:08:21;;;;;;;12.75;6.47;;;14.50;88.70;;;;;;5014645;28;20046;-76
2022/06/26 04:10:46;;;;;;;10.80;6.32;;;14.50;88.70;;;;;;5013675;28;20095;-76
2022/06/26 04:13:13;;;;;;;11.57;6.97;;;14.50;88.70;;;;;;5015386;28;20466;-77
2022/06/26 04:15:40;;;;;;;10.40;6.25;;;14.60;88.60;;;;;;5015375;28;20612;-76
2022/06/26 04:18:06;;;;;;;10.88;5.50;;;14.70;88.30;;;;;;5023419;28;20033;-77
2022/06/26 04:20:32;;;;;;;10.13;5.93;;;14.70;88.20;;;;;;5025820;28;20324;-75
2022/06/26 04:23:10;;;;;;;14.60;6.25;;;14.90;88.10;;;;;;5024590;28;20042;-76
2022/06/26 04:25:37;;;;;;;11.65;6.13;;;15.00;87.50;;;;;;5019609;28;20049;-75
2022/06/26 04:28:05;;;;;;;9.95;5.78;;;15.10;86.90;;;;;;5010967;28;20045;-76
2022/06/26 04:30:32;;;;;;;10.20;5.97;;;15.10;86.80;;;;;;5015655;28;20025;-76
2022/06/26 04:32:57;;;;;;;10.02;5.78;;;15.20;86.30;;;;;;5015514;28;20042;-76
2022/06/26 04:35:23;;;;;;;9.75;5.88;;;15.20;86.20;;;;;;5019939;28;20445;-76
2022/06/26 04:37:49;;;;;;;9.07;5.30;;;15.10;86.10;;;;;;5021439;28;20125;-76
2022/06/26 04:40:16;;;;;;;11.20;6.13;;;15.10;86.40;;;;;;5018642;28;20294;-76
2022/06/26 04:42:42;;;;;;;11.55;5.72;;;15.20;86.10;;;;;;5022088;28;20045;-75
2022/06/26 04:45:09;;;;;;;8.02;5.40;;;15.20;86.10;;;;;;5028376;28;20133;-76
2022/06/26 04:47:35;;;;;;;10.13;5.70;;;15.20;86.00;;;;;;5028970;28;20065;-75
2022/06/26 04:50:03;;;;;;;10.85;5.50;;;15.30;85.50;;;;;;5027715;28;20524;-76
2022/06/26 04:52:28;;;;;;;12.50;5.63;;;15.30;85.60;;;;;;5021353;28;20297;-76
2022/06/26 04:54:54;;;;;;;8.75;5.22;;;15.30;85.30;;;;;;5020088;28;20128;-75
2022/06/26 04:57:20;;;;;;;9.77;5.28;;;15.40;85.50;;;;;;5018362;28;20044;-75
2022/06/26 04:59:45;;;;;;;11.80;5.72;;;15.30;85.50;;;;;;5023291;28;20129;-75
2022/06/26 05:02:11;;;;;;;16.73;6.05;;;15.20;85.40;;;;;;5021848;28;20038;-76
2022/06/26 05:04:37;;;;;;;10.32;5.85;;;15.30;85.60;;;;;;5021321;28;20052;-75
2022/06/26 05:07:04;;;;;;;8.07;4.90;;;15.40;85.60;;;;;;5023726;28;20419;-75
2022/06/26 05:09:30;;;;;;;10.70;5.22;;;15.60;85.60;;;;;;5009163;28;20138;-75
2022/06/26 05:11:56;;;;;;;9.77;5.38;;;15.80;84.80;;;;;;5017454;28;20052;-75
2022/06/26 05:14:22;;;;;;;10.95;5.30;;;16.10;83.50;;;;;;5013388;28;20462;-75
2022/06/26 05:16:48;;;;;;;7.80;4.72;;;16.10;83.50;;;;;;5016173;28;20061;-75
2022/06/26 05:19:14;;;;;;;9.63;4.75;;;16.30;82.90;;;;;;5007518;28;20038;-77
2022/06/26 05:21:40;;;;;;;9.30;4.65;;;16.40;82.50;;;;;;5014050;28;20116;-76
2022/06/26 05:24:06;;;;;;;9.80;5.10;;;16.60;82.20;;;;;;5016589;28;20560;-76
2022/06/26 05:26:34;;;;;;;8.02;4.60;;;17.20;79.60;;;;;;5012780;28;20407;-77
2022/06/26 05:29:00;;;;;;;11.43;5.20;;;17.30;78.70;;;;;;5011206;28;20045;-76
2022/06/26 05:31:26;;;;;;;9.50;4.95;;;17.10;78.80;;;;;;5012903;28;20061;-76
2022/06/26 05:33:52;;;;;;;9.63;5.38;;;16.90;79.00;;;;;;5016312;28;20029;-76
2022/06/26 05:36:18;;;;;;;8.93;5.20;;;16.70;80.20;;;;;;5014190;28;20030;-76
2022/06/26 05:38:43;;;;;;;9.50;4.80;;;16.60;80.80;;;;;;5019747;28;20034;-77
2022/06/26 05:41:09;;;;;;;10.38;4.95;;;16.60;80.80;;;;;;5012607;28;20045;-76
2022/06/26 05:43:35;;;;;;;8.80;5.20;;;16.70;80.90;;;;;;5019380;28;20034;-76
2022/06/26 05:46:01;;;;;;;8.68;4.63;;;16.90;80.40;;;;;;5015300;28;20167;-77
2022/06/26 05:48:28;;;;;;;10.30;5.07;;;17.00;79.90;;;;;;5018222;28;20033;-76
2022/06/26 05:50:54;;;;;;;9.80;4.45;;;17.40;79.00;;;;;;5016970;28;20471;-76
2022/06/26 05:53:20;;;;;;;9.73;5.22;;;18.00;76.90;;;;;;5015865;28;20038;-76
2022/06/26 05:55:46;;;;;;;8.75;4.65;;;18.30;75.50;;;;;;5016109;28;20058;-76
2022/06/26 05:58:12;;;;;;;8.63;4.88;;;17.90;75.30;;;;;;5012972;28;20568;-77
2022/06/26 06:00:38;;;;;;;9.50;4.68;;;17.50;77.10;;;;;;5015051;28;20037;-77
2022/06/26 06:03:06;;;;;;;11.45;5.10;;;17.20;78.30;;;;;;5016505;28;20034;-76
2022/06/26 06:05:32;;;;;;;9.15;5.03;;;17.20;79.20;;;;;;5018422;28;20072;-76
2022/06/26 06:07:58;;;;;;;10.13;4.85;;;17.30;78.90;;;;;;5018509;28;20066;-76
2022/06/26 06:10:26;;;;;;;8.52;4.57;;;17.10;79.70;;;;;;5025709;28;20025;-77
2022/06/26 06:12:53;;;;;;;8.35;4.63;;;17.30;78.90;;;;;;5034286;28;20034;-76
2022/06/26 06:15:20;;;;;;;8.43;4.93;;;17.40;79.60;;;;;;5032932;28;20042;-77
2022/06/26 06:17:45;;;;;;;9.93;4.85;;;17.50;78.20;;;;;;5015162;28;20038;-76
2022/06/26 06:20:20;;;;;;;12.65;5.38;;;17.60;78.30;;;;;;5018295;28;20030;-76
2022/06/26 06:22:48;;;;;;;9.35;4.82;;;17.70;77.70;;;;;;5011020;28;20029;-75
2022/06/26 06:25:14;;;;;;;9.63;4.93;;;17.80;77.60;;;;;;5014489;28;20389;-77
2022/06/26 06:27:40;;;;;;;10.15;5.63;;;17.90;76.70;;;;;;5016405;28;20046;-76
2022/06/26 06:30:08;;;;;;;8.88;4.20;;;17.90;76.50;;;;;;5013147;28;20026;-77
2022/06/26 06:32:34;;;;;;;8.02;4.30;;;18.10;76.90;;;;;;5015193;28;20064;-77
2022/06/26 06:35:00;;;;;;;7.80;4.28;;;18.10;76.40;;;;;;5015025;28;20037;-76
2022/06/26 06:37:26;;;;;;;14.15;4.75;;;18.20;76.60;;;;;;5013867;28;20041;-76
2022/06/26 06:39:52;;;;;;;10.98;4.82;;;18.40;76.00;;;;;;5016456;28;20155;-76
2022/06/26 06:42:18;;;;;;;15.20;6.20;;;18.50;75.00;;;;;;5013042;28;20029;-77
2022/06/26 06:44:43;;;;;;;10.40;4.65;;;18.60;75.30;;;;;;5015018;28;20033;-76
2022/06/26 06:47:11;;;;;;;7.85;4.70;;;18.70;74.60;;;;;;5013581;28;20103;-76
2022/06/26 06:49:37;;;;;;;10.40;4.47;;;18.80;74.90;;;;;;5023665;28;20033;-76
2022/06/26 06:52:04;;;;;;;9.23;4.43;;;18.90;73.50;;;;;;5019106;28;20041;-76
2022/06/26 06:54:29;;;;;;;11.02;4.53;;;18.90;73.10;;;;;;5016247;28;20030;-77
2022/06/26 06:56:55;;;;;;;9.68;4.72;;;18.90;73.50;;;;;;5021093;28;20071;-75
2022/06/26 06:59:21;;;;;;;10.30;3.95;;;19.10;73.20;;;;;;5014917;28;20658;-76
2022/06/26 07:01:46;;;;;;;7.97;4.43;;;19.10;73.20;;;;;;5014665;28;20034;-76
2022/06/26 07:04:12;;;;;;;10.07;4.32;;;19.20;73.00;;;;;;5014752;28;20049;-75
2022/06/26 07:06:38;;;;;;;11.50;4.97;;;19.20;72.70;;;;;;5020040;28;20405;-76
2022/06/26 07:09:05;;;;;;;9.30;4.78;;;19.10;71.70;;;;;;5018940;28;20052;-78
2022/06/26 07:11:31;;;;;;;8.05;4.15;;;19.10;71.80;;;;;;5019280;28;20049;-82
2022/06/26 07:13:56;;;;;;;13.02;5.25;;;19.40;72.20;;;;;;5020296;28;20374;-80
2022/06/26 07:16:22;;;;;;;8.90;4.72;;;19.50;71.20;;;;;;5019201;28;20034;-77
2022/06/26 07:18:48;;;;;;;10.27;4.32;;;19.50;71.60;;;;;;5016204;28;21081;-77
2022/06/26 07:21:14;;;;;;;8.95;4.55;;;19.30;71.50;;;;;;5010719;28;20042;-82
2022/06/26 07:23:40;;;;;;;7.68;4.20;;;19.40;71.70;;;;;;5012183;28;20037;-78
2022/06/26 07:26:06;;;;;;;11.27;4.53;;;19.40;71.60;;;;;;5012973;28;20064;-76
2022/06/26 07:28:32;;;;;;;11.45;4.15;;;19.50;70.90;;;;;;5015351;28;20119;-79
2022/06/26 07:30:58;;;;;;;9.80;4.30;;;19.60;71.10;;;;;;5016200;28;20040;-76
2022/06/26 07:36:08;;;;;;;;;;;19.70;70.30;;;;;;5012840;28;20032;-78
2022/06/26 07:38:33;;;;;;;8.52;4.70;;;19.80;70.30;;;;;;5017383;28;19925;-75
2022/06/26 07:40:59;;;;;;;8.85;4.55;;;19.70;70.20;;;;;;5011778;28;20034;-80
2022/06/26 07:43:25;;;;;;;8.82;3.92;;;19.70;69.00;;;;;;5017890;28;20462;-75
2022/06/26 07:45:50;;;;;;;9.60;4.57;;;19.90;69.90;;;;;;5015050;28;20048;-76
2022/06/26 07:48:16;;;;;;;7.65;4.22;;;20.10;69.80;;;;;;5015996;28;20046;-77
2022/06/26 07:50:42;;;;;;;10.25;4.22;;;20.40;69.40;;;;;;5012573;28;20053;-75
2022/06/26 07:53:08;;;;;;;9.25;4.43;;;20.60;67.30;;;;;;5021264;28;20053;-74
2022/06/26 07:55:34;;;;;;;11.20;4.75;;;20.60;66.90;;;;;;5023645;28;20073;-78
2022/06/26 07:57:59;;;;;;;9.90;4.45;;;20.50;67.10;;;;;;5020320;28;20045;-74
2022/06/26 08:00:25;;;;;;;10.77;4.63;;;20.50;68.30;;;;;;5017498;28;20075;-79
2022/06/26 08:02:51;;;;;;;9.25;4.57;;;20.40;68.20;;;;;;5024595;28;20053;-81
2022/06/26 08:05:17;;;;;;;9.68;4.47;;;20.20;68.10;;;;;;5023537;28;20432;-81
2022/06/26 08:07:42;;;;;;;13.15;5.10;;;20.40;67.90;;;;;;5040571;28;20135;-86
2022/06/26 08:10:09;;;;;;;10.13;3.97;;;20.40;67.60;;;;;;5036673;28;20060;-79
2022/06/26 08:12:34;;;;;;;8.57;4.35;;;20.40;67.30;;;;;;5013510;28;20040;-81
2022/06/26 08:15:00;;;;;;;10.75;4.40;;;20.40;67.30;;;;;;5018858;28;20042;-86
2022/06/26 08:17:26;;;;;;;8.10;4.45;;;20.50;66.20;;;;;;5014405;28;20042;-81
2022/06/26 08:19:51;;;;;;;9.50;4.72;;;20.60;66.20;;;;;;5026454;28;20572;-80
2022/06/26 08:22:17;;;;;;;9.95;4.30;;;20.60;66.20;;;;;;5019323;28;20042;-79
2022/06/26 08:24:43;;;;;;;9.32;4.28;;;20.60;66.50;;;;;;5023298;28;20041;-80
2022/06/26 08:27:09;;;;;;;8.30;4.25;;;20.70;66.10;;;;;;5020696;28;20051;-80
2022/06/26 08:29:36;;;;;;;7.32;4.25;;;20.80;65.30;;;;;;5022471;28;20033;-83
2022/06/26 08:32:03;;;;;;;6.75;3.85;;;20.70;65.30;;;;;;5017818;28;20029;-83
2022/06/26 08:34:29;;;;;;;10.27;4.10;;;21.00;65.80;;;;;;5031780;28;20037;-89
2022/06/26 08:36:55;;;;;;;8.30;3.83;;;21.00;64.50;;;;;;5040835;28;20044;-83
2022/06/26 08:39:21;;;;;;;8.25;3.88;;;21.20;64.30;;;;;;5023338;28;20041;-81
2022/06/26 08:41:48;;;;;;;10.23;3.97;;;21.30;64.00;;;;;;5017520;28;20037;-80
2022/06/26 08:44:14;;;;;;;7.85;3.55;;;21.40;63.20;;;;;;5022805;28;20674;-87
2022/06/26 08:46:45;;;;;;;8.07;3.95;;;21.40;63.10;;;;;;5019386;28;20034;-83
2022/06/26 08:49:20;;;;;;;7.22;3.90;;;21.60;62.70;;;;;;5019217;28;20090;-81
2022/06/26 08:51:48;;;;;;;7.88;3.15;;;21.70;61.30;;;;;;5020781;28;20037;-81
2022/06/26 08:54:15;;;;;;;6.72;3.25;;;21.70;60.90;;;;;;5015896;28;20116;-80
2022/06/26 08:56:46;;;;;;;9.13;3.67;;;21.90;61.80;;;;;;5015929;28;20053;-82
2022/06/26 08:59:13;;;;;;;10.20;4.13;;;22.10;60.80;;;;;;5019018;28;20528;-82
2022/06/26 09:01:40;;;;;;;10.35;3.83;;;22.10;60.30;;;;;;5015782;28;20044;-82
2022/06/26 09:04:07;;;;;;;7.88;3.15;;;22.40;60.90;;;;;;5015937;28;20076;-81
2022/06/26 09:06:34;;;;;;;8.80;2.90;;;22.20;60.00;;;;;;5014252;28;20042;-80
2022/06/26 09:09:00;;;;;;;7.70;3.05;;;22.10;58.30;;;;;;5023320;28;20504;-82
2022/06/26 09:11:26;;;;;;;6.80;2.80;;;21.90;57.50;;;;;;5015620;28;20044;-83
2022/06/26 09:13:53;;;;;;;7.97;2.92;;;21.70;57.90;;;;;;5018038;28;20094;-82
2022/06/26 09:16:30;;;;;;;7.55;3.10;;;21.90;57.70;;;;;;5018264;28;20048;-80
2022/06/26 09:19:09;;;;;;;9.52;3.70;;;21.90;58.00;;;;;;5020234;28;20053;-88
2022/06/26 09:21:34;;;;;;;8.65;3.70;;;21.80;58.50;;;;;;5015359;28;20030;-82
2022/06/26 09:24:00;;;;;;;8.93;3.22;;;21.90;58.60;;;;;;5022894;28;20563;-87
2022/06/26 09:26:25;;;;;;;8.98;3.35;;;21.80;59.30;;;;;;5020076;28;20053;-83
2022/06/26 09:28:52;;;;;;;7.00;2.92;;;22.10;58.80;;;;;;5024794;28;20530;-80
2022/06/26 09:31:22;;;;;;;8.63;3.17;;;22.10;57.10;;;;;;5020528;28;20564;-80
2022/06/26 09:33:48;;;;;;;8.32;3.50;;;22.10;56.20;;;;;;5023990;28;20045;-82
2022/06/26 09:36:16;;;;;;;7.07;2.70;;;22.50;56.00;;;;;;5024285;28;20042;-82
2022/06/26 09:38:49;;;;;;;6.93;2.70;;;22.50;54.90;;;;;;5025291;28;20140;-80
2022/06/26 09:41:15;;;;;;;9.55;2.90;;;22.40;55.40;;;;;;5015023;28;20045;-80
2022/06/26 09:43:43;;;;;;;9.35;2.85;;;22.60;55.90;;;;;;5020849;28;20037;-86
2022/06/26 09:46:14;;;;;;;7.97;3.20;;;22.70;54.50;;;;;;5019759;28;20030;-81
2022/06/26 09:48:41;;;;;;;9.13;2.60;;;22.60;54.50;;;;;;5022794;28;20033;-84
2022/06/26 09:51:10;;;;;;;8.23;2.33;;;22.80;54.20;;;;;;5020368;28;20049;-82
2022/06/26 09:53:36;;;;;;;7.60;2.67;;;23.00;53.90;;;;;;5021399;28;20045;-80
2022/06/26 09:56:02;;;;;;;6.68;2.65;;;23.00;52.60;;;;;;5022481;28;20041;-81
2022/06/26 09:58:29;;;;;;;7.68;3.17;;;23.00;52.90;;;;;;5021846;28;20051;-79
2022/06/26 10:06:29;;;;;;;8.45;2.60;;;23.30;52.10;;;;;;5027068;28;20389;-84
2022/06/26 10:09:00;;;;;;;5.25;2.28;;;23.80;50.00;;;;;;5019368;28;20046;-78
2022/06/26 10:11:28;;;;;;;10.45;2.72;;;23.90;50.00;;;;;;5016637;28;20300;-80
2022/06/26 10:13:58;;;;;;;5.90;2.20;;;24.20;48.70;;;;;;5028250;28;20038;-82
2022/06/26 10:16:47;;;;;;;5.43;2.28;;;24.10;47.60;;;;;;5018444;28;20042;-83
2022/06/26 10:19:41;;;;;;;9.30;2.47;;;24.10;47.80;;;;;;5015082;28;20190;-81
2022/06/26 10:22:07;;;;;;;7.13;2.40;;;24.00;46.50;;;;;;5020371;28;20045;-82
2022/06/26 10:24:33;;;;;;;6.10;2.22;;;23.90;49.30;;;;;;5022571;28;20444;-84
2022/06/26 10:27:01;;;;;;;7.63;2.60;;;24.20;48.20;;;;;;5021889;28;20103;-79
2022/06/26 10:29:38;;;;;;;7.25;2.20;;;24.60;46.90;;;;;;5024991;28;20397;-79
2022/06/26 10:32:05;;;;;;;6.35;2.28;;;24.60;44.20;;;;;;5027195;28;20061;-79
2022/06/26 10:34:31;;;;;;;6.53;2.05;;;24.70;45.40;;;;;;5026552;28;20537;-80
2022/06/26 10:37:02;;;;;;;8.32;2.25;;;24.90;46.90;;;;;;5021133;28;20589;-80
2022/06/26 10:39:43;;;;;;;7.40;2.45;;;25.00;45.10;;;;;;5015651;28;20099;-82
2022/06/26 10:45:06;;;;;;;6.18;1.92;;;24.60;44.20;;;;;;5025375;28;20049;-81
2022/06/26 10:47:51;;;;;;;7.20;1.90;;;24.00;46.00;;;;;;5025521;28;20037;-80
2022/06/26 10:50:26;;;;;;;7.38;2.17;;;24.10;45.20;;;;;;5023030;28;20173;-79
2022/06/26 10:52:53;;;;;;;8.20;2.08;;;24.40;45.20;;;;;;5018658;28;20037;-79
2022/06/26 10:55:19;;;;;;;7.63;2.33;;;24.60;45.20;;;;;;5023493;28;20037;-77
2022/06/26 10:57:45;;;;;;;5.00;1.83;;;24.80;46.10;;;;;;5021835;28;20033;-80
2022/06/26 11:00:13;;;;;;;8.23;2.20;;;24.90;42.90;;;;;;5016666;28;20041;-85
2022/06/26 11:02:44;;;;;;;5.75;2.30;;;25.10;43.20;;;;;;5022092;28;20329;-81
2022/06/26 11:05:11;;;;;;;5.70;1.98;;;24.70;44.00;;;;;;5014742;28;20042;-79
2022/06/26 11:07:48;;;;;;;9.30;2.38;;;24.60;43.80;;;;;;5017025;28;20041;-82
2022/06/26 11:10:17;;;;;;;3.58;1.70;;;24.60;44.50;;;;;;5024315;28;20315;-82
2022/06/26 11:12:45;;;;;;;7.55;1.80;;;24.90;43.80;;;;;;5019474;28;20045;-83
2022/06/26 11:15:21;;;;;;;5.65;1.83;;;25.00;45.00;;;;;;5022512;28;20140;-78
2022/06/26 11:17:59;;;;;;;6.85;2.10;;;25.30;42.80;;;;;;5026268;28;20029;-78
2022/06/26 11:23:18;;;;;;;6.15;1.92;;;25.30;41.50;;;;;;5021523;28;20129;-79
2022/06/26 11:25:48;;;;;;;5.07;1.63;;;24.70;41.70;;;;;;5015214;28;20045;-78
2022/06/26 11:28:14;;;;;;;6.00;1.77;;;24.80;41.70;;;;;;5018132;28;20071;-76
2022/06/26 11:30:41;;;;;;;5.00;1.60;;;25.30;41.50;;;;;;5022741;28;20132;-76
2022/06/26 11:33:08;;;;;;;7.38;1.90;;;25.40;43.00;;;;;;5019575;28;20045;-77
2022/06/26 11:35:35;;;;;;;6.13;2.13;;;25.30;41.60;;;;;;5016747;28;20124;-76
2022/06/26 11:38:15;;;;;;;4.93;1.80;;;25.40;42.70;;;;;;5013194;28;20157;-75
2022/06/26 11:40:42;;;;;;;7.22;2.20;;;25.30;41.00;;;;;;5016532;28;20153;-80
2022/06/26 11:43:08;;;;;;;7.40;1.90;;;24.50;42.70;;;;;;5015100;28;20038;-79
2022/06/26 11:45:35;;;;;;;6.65;1.67;;;24.50;43.80;;;;;;5016351;28;20540;-80
2022/06/26 11:48:05;;;;;;;7.20;2.28;;;24.40;43.30;;;;;;5020458;28;20044;-78
2022/06/26 11:50:36;;;;;;;6.05;1.80;;;24.50;41.80;;;;;;5011162;28;20061;-80
2022/06/26 11:53:03;;;;;;;6.05;2.15;;;24.70;41.70;;;;;;5010582;28;20033;-81
2022/06/26 11:55:30;;;;;;;6.68;1.63;;;24.60;40.90;;;;;;5018246;28;20033;-78
2022/06/26 11:57:56;;;;;;;3.83;1.60;;;24.80;41.50;;;;;;5019603;28;20049;-79
2022/06/26 12:00:23;;;;;;;4.47;1.80;;;24.60;41.10;;;;;;5018301;28;20528;-81
2022/06/26 12:02:50;;;;;;;10.60;1.75;;;24.50;41.90;;;;;;5017241;28;20038;-79
2022/06/26 12:05:24;;;;;;;4.35;1.77;;;24.70;39.90;;;;;;5010142;28;20034;-78
2022/06/26 12:07:52;;;;;;;7.50;1.70;;;24.70;40.40;;;;;;5018644;28;20498;-81
2022/06/26 12:10:32;;;;;;;5.03;1.67;;;25.00;39.50;;;;;;5015707;28;20072;-79
2022/06/26 12:13:01;;;;;;;4.38;1.55;;;25.00;40.10;;;;;;5018563;28;20030;-77
2022/06/26 12:15:31;;;;;;;5.47;1.77;;;25.30;40.80;;;;;;5016966;28;20085;-78
2022/06/26 12:18:03;;;;;;;8.18;1.95;;;25.20;40.30;;;;;;5019467;28;20343;-77
2022/06/26 12:20:35;;;;;;;5.60;1.70;;;24.70;41.10;;;;;;5017442;28;20033;-81
2022/06/26 12:23:01;;;;;;;7.25;1.60;;;25.00;41.60;;;;;;5023655;28;20034;-75
2022/06/26 12:25:38;;;;;;;6.82;1.75;;;25.30;40.60;;;;;;5022999;28;20040;-79
2022/06/26 12:28:04;;;;;;;5.03;1.42;;;25.50;39.30;;;;;;5018038;28;20640;-80
2022/06/26 12:30:39;;;;;;;7.05;1.52;;;25.20;37.90;;;;;;5016805;28;20149;-83
2022/06/26 12:33:06;;;;;;;8.85;2.20;;;25.00;38.40;;;;;;5017949;28;20060;-80
2022/06/26 12:35:33;;;;;;;6.45;1.80;;;24.80;38.80;;;;;;5021375;28;20045;-82
2022/06/26 12:37:59;;;;;;;5.72;1.70;;;24.70;40.10;;;;;;5014366;28;20119;-80
2022/06/26 12:40:26;;;;;;;4.38;1.42;;;24.60;39.70;;;;;;5020467;28;20083;-80
2022/06/26 12:42:52;;;;;;;6.00;1.80;;;24.70;38.60;;;;;;5018049;28;20108;-77
2022/06/26 12:45:18;;;;;;;5.03;1.60;;;24.80;40.50;;;;;;5018187;28;20494;-76
2022/06/26 12:47:44;;;;;;;7.07;1.63;;;24.90;39.50;;;;;;5019780;28;20048;-76
2022/06/26 12:50:13;;;;;;;4.97;1.80;;;25.00;38.20;;;;;;5014203;28;20180;-82
2022/06/26 12:52:38;;;;;;;3.35;1.35;;;25.20;38.10;;;;;;5019336;28;20465;-83
2022/06/26 12:55:06;;;;;;;6.18;1.75;;;25.50;37.60;;;;;;5023004;28;20041;-78
2022/06/26 12:57:32;;;;;;;8.30;1.80;;;25.60;37.00;;;;;;5014806;28;20534;-78
2022/06/26 12:59:58;;;;;;;6.80;1.63;;;25.70;37.00;;;;;;5017255;28;20077;-77